Time;durP1;ratioP1;P1;durP2;ratioP2;P2;SDS_P1;SDS_P2;PMS_P1;PMS_P2;Temp;Humidity;BMP_temperature;BMP_pressure;BME280_temperature;BME280_humidity;BME280_pressure;Samples;Min_cycle;Max_cycle;Signal;HPM_P1;HPM_P2
2023/07/13 00:00:10;;;;;;;;;3.00;3.00;;;;;24.22;33.27;101216.94;5061394;28;45474;-67
2023/07/13 00:02:36;;;;;;;;;2.50;2.50;;;;;24.20;33.64;101215.31;5061386;28;47056;-68
2023/07/13 00:05:01;;;;;;;;;1.50;1.50;;;;;24.17;33.05;101219.06;5061311;28;45306;-67
2023/07/13 00:07:26;;;;;;;;;3.00;3.00;;;;;24.16;33.54;101222.69;5061336;28;45285;-67
2023/07/13 00:09:52;;;;;;;;;2.00;2.00;;;;;24.13;33.19;101220.22;5061120;28;45257;-67
2023/07/13 00:12:26;;;;;;;;;2.75;2.50;;;;;24.10;33.56;101223.09;5061232;28;46290;-67
2023/07/13 00:14:51;;;;;;;;;4.00;3.00;;;;;24.07;33.77;101218.78;5059516;28;45563;-67
2023/07/13 00:17:17;;;;;;;;;5.00;3.00;;;;;24.02;33.36;101224.47;5061560;28;45398;-67
2023/07/13 00:19:42;;;;;;;;;2.00;2.00;;;;;24.00;33.58;101221.00;5061033;28;45185;-67
2023/07/13 00:22:07;;;;;;;;;2.25;2.25;;;;;23.98;33.62;101228.28;5060715;28;45250;-67
2023/07/13 00:24:32;;;;;;;;;2.00;2.00;;;;;23.95;33.77;101230.28;5061008;28;45255;-67
2023/07/13 00:26:58;;;;;;;;;3.50;2.75;;;;;23.91;33.59;101221.59;5060678;28;48579;-67
2023/07/13 00:29:25;;;;;;;;;3.50;2.75;;;;;23.92;33.73;101231.34;5059705;28;45488;-67
2023/07/13 00:31:51;;;;;;;;;1.00;1.00;;;;;23.90;33.46;101222.50;5061018;28;46182;-67
2023/07/13 00:34:16;;;;;;;;;3.00;2.00;;;;;23.89;33.85;101226.16;5060517;28;45333;-67
2023/07/13 00:36:41;;;;;;;;;2.50;2.25;;;;;23.87;33.69;101222.69;5060795;28;45229;-67
2023/07/13 00:39:07;;;;;;;;;2.25;2.00;;;;;23.86;33.80;101223.63;5060784;28;45320;-67
2023/07/13 00:41:32;;;;;;;;;4.50;2.00;;;;;23.85;33.82;101221.94;5059264;28;45987;-67
2023/07/13 00:43:57;;;;;;;;;1.75;1.75;;;;;23.84;33.76;101234.47;5060744;28;45355;-67
2023/07/13 00:46:26;;;;;;;;;2.00;2.00;;;;;23.82;33.89;101231.06;5059419;28;45383;-67
2023/07/13 00:48:54;;;;;;;;;2.50;2.00;;;;;23.81;34.06;101237.38;5075527;28;45428;-67
2023/07/13 00:51:50;;;;;;;;;2.25;2.25;;;;;23.81;34.00;101241.84;5079298;28;48626;-67
2023/07/13 00:54:21;;;;;;;;;3.75;3.00;;;;;23.79;33.94;101241.09;5080582;28;45392;-67
2023/07/13 00:56:50;;;;;;;;;1.75;0.75;;;;;23.78;34.24;101245.59;5080679;28;45241;-67
2023/07/13 00:59:19;;;;;;;;;2.00;2.00;;;;;23.76;34.07;101244.84;5067960;28;45387;-67
2023/07/13 01:01:45;;;;;;;;;2.00;1.25;;;;;23.75;34.26;101244.91;5080416;28;46404;-67
2023/07/13 01:04:10;;;;;;;;;1.50;1.50;;;;;23.72;33.88;101245.13;5079563;28;45791;-67
2023/07/13 01:06:37;;;;;;;;;1.75;1.75;;;;;23.76;34.13;101255.56;5080458;28;45343;-67
2023/07/13 01:09:04;;;;;;;;;2.00;2.00;;;;;23.75;34.15;101253.84;5080780;28;45247;-67
2023/07/13 01:11:30;;;;;;;;;2.00;2.00;;;;;23.75;34.30;101250.28;5078966;28;47246;-67
2023/07/13 01:13:55;;;;;;;;;3.00;2.00;;;;;23.71;34.46;101246.94;5080399;28;45505;-67
2023/07/13 01:16:30;;;;;;;;;2.25;2.25;;;;;23.69;34.45;101255.06;5080704;28;45268;-67
2023/07/13 01:18:58;;;;;;;;;2.75;2.00;;;;;23.68;34.49;101256.06;5080512;28;45382;-67
2023/07/13 01:21:23;;;;;;;;;2.00;2.00;;;;;23.65;34.64;101258.06;5079372;28;45415;-67
2023/07/13 01:23:49;;;;;;;;;3.75;1.50;;;;;23.65;34.58;101260.75;5080376;28;45334;-67
2023/07/13 01:26:14;;;;;;;;;3.00;3.00;;;;;23.61;34.64;101260.06;5079119;28;45240;-67
2023/07/13 01:28:40;;;;;;;;;1.25;1.25;;;;;23.60;34.88;101261.00;5080607;28;45244;-67
2023/07/13 01:31:05;;;;;;;;;5.25;2.00;;;;;23.59;34.62;101269.16;5080378;28;45274;-67
2023/07/13 01:33:31;;;;;;;;;2.75;2.75;;;;;23.54;34.84;101261.38;5069883;28;45384;-67
2023/07/13 01:35:57;;;;;;;;;1.75;1.25;;;;;23.53;34.80;101271.25;5060167;28;45571;-67
2023/07/13 01:38:23;;;;;;;;;1.75;1.75;;;;;23.48;34.92;101264.44;5059994;28;45375;-67
2023/07/13 01:40:51;;;;;;;;;2.50;2.50;;;;;23.51;34.99;101265.13;5059521;28;46339;-68
2023/07/13 01:43:16;;;;;;;;;2.75;2.00;;;;;23.50;34.89;101266.06;5059876;28;45349;-67
2023/07/13 01:45:43;;;;;;;;;3.00;1.75;;;;;23.49;34.74;101266.16;5059731;28;45478;-67
2023/07/13 01:48:09;;;;;;;;;2.50;2.50;;;;;23.48;35.02;101261.75;5067639;28;45382;-68
2023/07/13 01:50:36;;;;;;;;;2.75;2.00;;;;;23.48;35.10;101264.44;5079831;28;45460;-67
2023/07/13 01:53:01;;;;;;;;;3.75;1.50;;;;;23.44;35.02;101266.44;5069693;28;45196;-67
2023/07/13 01:55:27;;;;;;;;;2.50;2.50;;;;;23.42;35.17;101273.72;5075491;28;45153;-67
2023/07/13 01:57:53;;;;;;;;;2.00;2.00;;;;;23.39;35.32;101278.41;5071023;28;45208;-67
2023/07/13 02:00:18;;;;;;;;;0.00;0.00;;;;;23.34;35.31;101281.34;5059578;28;45192;-67
2023/07/13 02:02:44;;;;;;;;;2.25;2.25;;;;;23.29;35.33;101270.91;5059873;28;45311;-67
2023/07/13 02:05:10;;;;;;;;;2.00;1.00;;;;;23.27;35.26;101274.63;5058389;28;45277;-66
2023/07/13 02:07:36;;;;;;;;;0.75;0.75;;;;;23.25;34.84;101279.22;5059584;28;45513;-67
2023/07/13 02:10:01;;;;;;;;;1.75;1.00;;;;;23.17;35.16;101283.22;5057952;28;46035;-66
2023/07/13 02:12:26;;;;;;;;;0.75;0.75;;;;;23.15;35.07;101286.91;5059694;28;45297;-66
2023/07/13 02:14:52;;;;;;;;;1.00;1.00;;;;;23.07;35.04;101278.44;5059406;28;45307;-67
2023/07/13 02:17:17;;;;;;;;;1.00;1.00;;;;;23.00;34.99;101278.81;5059786;28;45453;-67
2023/07/13 02:19:42;;;;;;;;;2.75;1.00;;;;;22.99;35.32;101278.91;5057819;28;52812;-67
2023/07/13 02:22:08;;;;;;;;;1.00;1.00;;;;;22.95;35.13;101280.03;5059089;28;45580;-67
2023/07/13 02:24:33;;;;;;;;;1.00;1.00;;;;;22.90;35.27;101277.63;5058277;28;45404;-67
2023/07/13 02:26:58;;;;;;;;;0.25;0.00;;;;;22.87;35.00;101278.66;5059318;28;45311;-67
2023/07/13 02:29:24;;;;;;;;;3.00;1.00;;;;;22.85;35.11;101277.03;5059245;28;46217;-68
2023/07/13 02:31:49;;;;;;;;;0.25;0.25;;;;;22.84;34.78;101280.66;5058120;28;45419;-67
2023/07/13 02:34:15;;;;;;;;;1.25;1.00;;;;;22.83;35.07;101271.75;5060381;28;45367;-67
2023/07/13 02:36:40;;;;;;;;;3.25;2.00;;;;;22.82;34.97;101263.81;5062651;28;45546;-67
2023/07/13 02:39:06;;;;;;;;;1.00;1.00;;;;;22.83;34.96;101270.88;5062587;28;45502;-67
2023/07/13 02:41:32;;;;;;;;;1.25;1.00;;;;;22.82;35.07;101269.19;5062694;28;45236;-67
2023/07/13 02:44:03;;;;;;;;;1.75;1.00;;;;;22.82;34.85;101269.19;5062915;28;45315;-67
2023/07/13 02:46:33;;;;;;;;;1.75;1.00;;;;;22.79;35.38;101272.91;5062684;28;45395;-67
2023/07/13 02:48:59;;;;;;;;;2.75;0.75;;;;;22.79;35.20;101277.38;5074810;28;45402;-67
2023/07/13 02:51:24;;;;;;;;;0.00;0.00;;;;;22.76;34.97;101273.06;5062329;28;45304;-67
2023/07/13 02:53:50;;;;;;;;;0.50;0.50;;;;;22.77;34.96;101272.09;5062558;28;45272;-67
2023/07/13 02:56:15;;;;;;;;;1.25;1.00;;;;;22.78;35.07;101271.16;5064714;28;45224;-67
2023/07/13 02:58:40;;;;;;;;;2.00;2.00;;;;;22.77;35.10;101277.47;5066693;27;45265;-67
2023/07/13 03:01:10;;;;;;;;;1.00;1.00;;;;;22.75;35.11;101279.34;5062468;28;45338;-67
2023/07/13 03:03:37;;;;;;;;;1.00;1.00;;;;;22.74;35.32;101274.94;5062165;28;45288;-67
2023/07/13 03:06:05;;;;;;;;;1.75;1.75;;;;;22.73;35.22;101276.78;5062369;28;45275;-67
2023/07/13 03:08:30;;;;;;;;;1.75;1.00;;;;;22.72;35.42;101282.22;5061953;28;45288;-67
2023/07/13 03:11:00;;;;;;;;;1.00;1.00;;;;;22.71;35.26;101280.50;5062320;28;45328;-67
2023/07/13 03:13:25;;;;;;;;;0.75;0.75;;;;;22.69;35.35;101290.41;5074562;28;45348;-67
2023/07/13 03:15:51;;;;;;;;;1.00;0.00;;;;;22.70;35.17;101286.78;5062061;28;45388;-68
2023/07/13 03:18:16;;;;;;;;;2.00;1.00;;;;;22.69;35.42;101288.63;5061771;28;49325;-67
2023/07/13 03:20:41;;;;;;;;;0.50;0.50;;;;;22.65;35.42;101284.38;5060720;28;46203;-67
2023/07/13 03:23:06;;;;;;;;;2.75;0.25;;;;;22.66;35.35;101291.47;5061526;28;45513;-67
2023/07/13 03:25:32;;;;;;;;;2.00;0.00;;;;;22.64;35.50;101293.38;5062092;28;45509;-67
2023/07/13 03:27:57;;;;;;;;;1.25;1.00;;;;;22.61;35.70;101296.22;5061817;28;45361;-67
2023/07/13 03:30:23;;;;;;;;;2.00;1.00;;;;;22.60;35.27;101297.16;5061964;28;45319;-67
2023/07/13 03:32:48;;;;;;;;;0.00;0.00;;;;;22.57;35.43;101294.66;5061978;28;45237;-67
2023/07/13 03:35:14;;;;;;;;;1.00;1.00;;;;;22.57;35.46;101297.34;5060705;28;45281;-67
2023/07/13 03:37:42;;;;;;;;;0.50;0.50;;;;;22.56;35.51;101295.59;5061541;28;45231;-67
2023/07/13 03:40:09;;;;;;;;;1.00;1.00;;;;;22.56;35.83;101293.81;5061807;28;45366;-67
2023/07/13 03:42:34;;;;;;;;;2.00;2.00;;;;;22.56;35.98;101296.50;5061669;28;45326;-66
2023/07/13 03:45:00;;;;;;;;;1.00;0.00;;;;;22.58;35.70;101301.75;5061193;28;45326;-66
2023/07/13 03:47:25;;;;;;;;;2.75;1.25;;;;;22.54;35.94;101292.13;5064299;28;45221;-66
2023/07/13 03:49:50;;;;;;;;;0.50;0.50;;;;;22.53;35.75;101301.16;5071131;28;45382;-66
2023/07/13 03:52:15;;;;;;;;;1.25;1.00;;;;;22.52;35.63;101310.97;5078066;28;45232;-66
2023/07/13 03:54:41;;;;;;;;;4.00;1.00;;;;;22.52;35.76;101313.66;5081766;28;45407;-66
2023/07/13 03:57:09;;;;;;;;;1.00;1.00;;;;;22.50;36.00;101312.00;5078154;28;46003;-66
2023/07/13 03:59:34;;;;;;;;;2.25;2.00;;;;;22.46;36.12;101311.31;5061710;28;45252;-66
2023/07/13 04:02:01;;;;;;;;;2.00;2.00;;;;;22.45;35.92;101311.41;5061419;28;45245;-65
2023/07/13 04:04:26;;;;;;;;;1.25;1.00;;;;;22.44;36.07;101320.38;5061680;28;45257;-65
2023/07/13 04:06:53;;;;;;;;;3.25;1.75;;;;;22.37;35.87;101311.84;5059525;28;47289;-66
2023/07/13 04:09:18;;;;;;;;;2.75;1.00;;;;;22.36;35.97;101321.66;5061485;28;45445;-66
2023/07/13 04:11:44;;;;;;;;;3.00;2.00;;;;;22.33;36.15;101327.16;5061104;28;45541;-66
2023/07/13 04:14:09;;;;;;;;;2.00;1.00;;;;;22.31;36.09;101331.72;5061240;28;45250;-66
2023/07/13 04:16:35;;;;;;;;;1.00;0.25;;;;;22.31;36.47;101333.56;5061303;28;46657;-66
2023/07/13 04:19:00;;;;;;;;;1.25;1.25;;;;;22.27;36.01;101323.97;5061330;28;45399;-66
2023/07/13 04:21:30;;;;;;;;;2.00;2.00;;;;;22.24;36.53;101333.88;5060776;28;45460;-66
2023/07/13 04:23:55;;;;;;;;;2.50;1.00;;;;;22.19;36.79;101327.06;5061432;28;45492;-66
2023/07/13 04:26:22;;;;;;;;;1.00;1.00;;;;;22.16;36.59;101336.13;5060651;28;45466;-66
2023/07/13 04:28:48;;;;;;;;;2.25;1.00;;;;;22.13;36.71;101332.75;5061048;28;45287;-66
2023/07/13 04:31:14;;;;;;;;;1.00;1.00;;;;;22.10;36.54;101335.56;5059495;28;45243;-66
2023/07/13 04:33:40;;;;;;;;;0.25;0.25;;;;;22.08;36.35;101336.50;5060962;28;45526;-66
2023/07/13 04:36:06;;;;;;;;;3.25;1.50;;;;;22.07;37.08;101341.94;5060572;28;45264;-66
2023/07/13 04:38:32;;;;;;;;;1.25;1.25;;;;;22.06;36.87;101340.22;5060816;28;45178;-66
2023/07/13 04:41:02;;;;;;;;;5.25;4.50;;;;;22.04;37.00;101348.31;5059382;28;45244;-65
2023/07/13 04:43:28;;;;;;;;;2.00;2.00;;;;;22.04;36.49;101345.66;5060691;28;45363;-66
2023/07/13 04:45:54;;;;;;;;;1.00;1.00;;;;;22.02;36.83;101339.50;5060356;28;45422;-66
2023/07/13 04:48:20;;;;;;;;;1.50;1.50;;;;;22.02;37.06;101344.00;5071189;28;45418;-65
2023/07/13 04:50:46;;;;;;;;;1.75;1.00;;;;;22.00;37.12;101346.78;5081095;28;45338;-66
2023/07/13 04:53:11;;;;;;;;;2.25;1.75;;;;;22.01;36.72;101350.31;5080729;28;45185;-65
2023/07/13 04:55:37;;;;;;;;;2.00;2.00;;;;;21.99;37.46;101347.72;5080627;27;45433;-65
2023/07/13 04:58:04;;;;;;;;;0.00;0.00;;;;;21.99;37.44;101347.72;5069527;28;45256;-66
2023/07/13 05:00:30;;;;;;;;;1.00;1.00;;;;;21.99;37.43;101350.38;5060454;28;45402;-65
2023/07/13 05:02:57;;;;;;;;;2.00;2.00;;;;;21.99;37.19;101349.53;5060478;28;45324;-65
2023/07/13 05:05:24;;;;;;;;;2.00;1.25;;;;;21.96;37.58;101350.56;5060221;28;46225;-65
2023/07/13 05:07:49;;;;;;;;;2.25;1.00;;;;;21.89;37.64;101333.09;5060124;28;45248;-65
2023/07/13 05:10:15;;;;;;;;;0.75;0.00;;;;;21.97;37.15;101351.41;5060233;28;45286;-65
2023/07/13 05:12:40;;;;;;;;;0.50;0.50;;;;;21.91;37.63;101336.53;5060774;28;45292;-66
2023/07/13 05:15:06;;;;;;;;;0.00;0.00;;;;;21.95;37.72;101353.28;5059946;28;45241;-66
2023/07/13 05:17:32;;;;;;;;;1.50;0.00;;;;;21.92;37.64;101338.28;5060664;28;45290;-66
2023/07/13 05:19:57;;;;;;;;;1.00;1.00;;;;;21.91;37.79;101332.06;5072713;28;45373;-65
2023/07/13 05:22:22;;;;;;;;;1.00;1.00;;;;;21.94;37.86;101340.84;5059844;28;45322;-65
2023/07/13 05:24:48;;;;;;;;;2.00;1.00;;;;;21.95;37.58;101338.13;5059799;28;45438;-66
2023/07/13 05:27:13;;;;;;;;;0.50;0.50;;;;;21.92;38.18;101333.81;5060171;28;45184;-67
2023/07/13 05:29:38;;;;;;;;;1.75;1.00;;;;;21.92;38.02;101347.19;5059605;28;45315;-67
2023/07/13 05:32:04;;;;;;;;;1.00;1.00;;;;;21.92;37.93;101344.50;5058768;28;45336;-67
2023/07/13 05:34:30;;;;;;;;;1.25;1.25;;;;;21.90;38.18;101349.06;5059725;28;46453;-67
2023/07/13 05:36:56;;;;;;;;;1.00;1.00;;;;;21.92;37.77;101355.22;5059460;28;45388;-67
2023/07/13 05:39:22;;;;;;;;;2.25;2.00;;;;;21.94;38.41;101354.22;5059582;28;45237;-67
2023/07/13 05:41:47;;;;;;;;;2.00;2.00;;;;;21.94;38.12;101364.94;5059645;28;45493;-67
2023/07/13 05:44:12;;;;;;;;;1.75;1.75;;;;;21.92;38.36;101371.25;5059727;28;46203;-67
2023/07/13 05:46:37;;;;;;;;;2.75;1.25;;;;;21.90;38.21;101373.13;5059603;28;45461;-65
2023/07/13 05:49:03;;;;;;;;;3.00;1.00;;;;;21.87;38.15;101377.78;5076187;28;45511;-64
2023/07/13 05:51:29;;;;;;;;;2.00;1.50;;;;;21.83;38.71;101374.41;5079916;28;45600;-64
2023/07/13 05:53:54;;;;;;;;;2.00;2.00;;;;;21.83;39.00;101376.22;5079587;28;46146;-64
2023/07/13 05:56:19;;;;;;;;;2.50;1.25;;;;;21.80;38.75;101373.69;5079805;28;45290;-64
2023/07/13 05:58:45;;;;;;;;;2.25;2.00;;;;;21.78;38.55;101381.78;5075403;28;45424;-65
2023/07/13 06:01:12;;;;;;;;;1.00;1.00;;;;;21.78;38.88;101389.81;5058428;28;45371;-65
2023/07/13 06:03:38;;;;;;;;;2.00;2.00;;;;;21.77;39.09;101389.91;5059576;28;46157;-65
2023/07/13 06:06:04;;;;;;;;;2.00;1.25;;;;;21.74;38.57;101386.44;5059538;28;45458;-64
2023/07/13 06:08:30;;;;;;;;;2.75;2.75;;;;;21.75;38.68;101381.97;5059691;28;45422;-64
2023/07/13 06:11:02;;;;;;;;;2.00;2.00;;;;;21.73;38.58;101370.47;5065707;27;45690;-64
2023/07/13 06:13:27;;;;;;;;;3.50;2.75;;;;;21.76;39.15;101383.69;5066434;28;46344;-64
2023/07/13 06:15:53;;;;;;;;;4.75;3.50;;;;;21.73;38.78;101376.66;5070758;28;45235;-66
2023/07/13 06:18:18;;;;;;;;;1.00;1.00;;;;;21.77;38.63;101388.06;5070053;28;45274;-67
2023/07/13 06:20:43;;;;;;;;;3.00;3.00;;;;;21.75;38.91;101393.50;5068926;28;50231;-66
2023/07/13 06:23:08;;;;;;;;;3.75;2.25;;;;;21.74;38.87;101389.09;5082413;28;45480;-67
2023/07/13 06:25:34;;;;;;;;;5.75;2.25;;;;;21.80;38.73;101395.06;5081396;28;45673;-65
2023/07/13 06:28:00;;;;;;;;;3.00;3.00;;;;;21.79;39.03;101399.56;5078974;28;45273;-71
2023/07/13 06:30:27;;;;;;;;;3.00;3.00;;;;;21.80;38.65;101397.75;5078338;28;45709;-67
2023/07/13 06:32:52;;;;;;;;;3.75;2.00;;;;;21.83;39.25;101394.94;5075075;28;45410;-67
2023/07/13 06:35:18;;;;;;;;;2.00;2.00;;;;;21.84;38.72;101394.84;5069025;28;45445;-73
2023/07/13 06:37:43;;;;;;;;;1.75;1.75;;;;;21.84;39.23;101391.31;5070146;28;45458;-76
2023/07/13 06:40:09;;;;;;;;;2.75;1.00;;;;;21.88;39.07;101399.09;5080516;28;45401;-69
2023/07/13 06:42:35;;;;;;;;;3.00;1.75;;;;;21.89;39.06;101402.66;5069633;28;47434;-72
2023/07/13 06:45:00;;;;;;;;;2.25;2.25;;;;;21.89;39.23;101406.19;5079446;28;45387;-72
2023/07/13 06:47:26;;;;;;;;;3.75;1.75;;;;;21.91;39.19;101408.78;5077506;28;45480;-66
2023/07/13 06:49:52;;;;;;;;;2.75;2.75;;;;;21.94;39.37;101405.94;5076099;28;45225;-68
2023/07/13 06:52:17;;;;;;;;;2.75;1.00;;;;;21.94;39.15;101410.41;5075027;28;45301;-69
2023/07/13 06:54:42;;;;;;;;;3.50;2.50;;;;;21.95;38.80;101413.03;5068873;28;45335;-70
2023/07/13 06:57:08;;;;;;;;;1.75;1.75;;;;;21.92;39.51;101399.81;5079065;28;45854;-65
2023/07/13 06:59:33;;;;;;;;;2.00;2.00;;;;;21.96;39.11;101413.91;5077935;28;45405;-69
2023/07/13 07:01:58;;;;;;;;;4.00;2.00;;;;;21.99;39.22;101413.75;5079583;27;46438;-72
2023/07/13 07:04:24;;;;;;;;;2.00;1.25;;;;;21.99;39.17;101413.75;5085055;27;45355;-74
2023/07/13 07:06:49;;;;;;;;;3.25;2.00;;;;;22.03;39.36;101418.00;5083676;27;45453;-73
2023/07/13 07:09:16;;;;;;;;;3.00;2.00;;;;;22.03;39.72;101423.34;5075349;27;51063;-75
2023/07/13 07:11:42;;;;;;;;;2.50;2.00;;;;;22.03;39.23;101420.66;5076981;28;45465;-75
2023/07/13 07:14:08;;;;;;;;;2.00;2.00;;;;;22.03;39.55;101423.34;5064884;28;45371;-68
2023/07/13 07:16:33;;;;;;;;;2.75;2.00;;;;;22.01;39.47;101418.06;5065899;28;45405;-68
2023/07/13 07:18:58;;;;;;;;;3.00;2.00;;;;;22.01;39.74;101418.06;5078021;27;45317;-68
2023/07/13 07:21:24;;;;;;;;;5.00;2.00;;;;;22.04;39.75;101427.75;5072096;28;50969;-68
2023/07/13 07:23:49;;;;;;;;;1.50;1.00;;;;;22.03;39.16;101426.03;5071501;28;45318;-68
2023/07/13 07:26:15;;;;;;;;;2.00;1.75;;;;;22.03;39.83;101424.19;5062091;28;45298;-68
2023/07/13 07:28:40;;;;;;;;;4.50;2.00;;;;;22.04;39.84;101433.97;5060484;28;45403;-68
2023/07/13 07:31:06;;;;;;;;;3.25;1.50;;;;;22.02;39.40;101426.97;5062089;28;45260;-68
2023/07/13 07:33:34;;;;;;;;;5.50;4.25;;;;;22.02;39.42;101429.63;5060433;28;46297;-68
2023/07/13 07:35:59;;;;;;;;;2.50;2.50;;;;;22.01;40.24;101427.91;5062248;27;45288;-68
2023/07/13 07:38:24;;;;;;;;;1.50;1.50;;;;;22.00;39.84;101424.38;5061535;28;45512;-68
2023/07/13 07:40:50;;;;;;;;;2.50;2.50;;;;;22.01;39.62;101428.78;5061555;28;46270;-68
2023/07/13 07:43:15;;;;;;;;;3.25;2.00;;;;;22.00;40.27;101435.06;5061582;28;45322;-68
2023/07/13 07:45:41;;;;;;;;;3.00;2.00;;;;;21.99;40.06;101440.50;5061947;28;45435;-68
2023/07/13 07:48:07;;;;;;;;;4.50;3.00;;;;;21.99;40.00;101440.50;5061479;28;45425;-68
2023/07/13 07:50:33;;;;;;;;;3.25;2.25;;;;;22.00;39.77;101436.84;5060391;28;46225;-68
2023/07/13 07:52:58;;;;;;;;;1.00;1.00;;;;;21.99;40.15;101444.03;5061135;28;45382;-68
2023/07/13 07:55:27;;;;;;;;;4.50;3.00;;;;;21.96;40.24;101438.84;5060235;28;45265;-68
2023/07/13 07:57:53;;;;;;;;;1.75;1.00;;;;;22.00;39.72;101447.56;5068246;27;45228;-68
2023/07/13 08:00:19;;;;;;;;;1.25;1.00;;;;;22.00;40.12;101445.78;5064244;28;46169;-68
2023/07/13 08:02:45;;;;;;;;;3.00;3.00;;;;;22.00;39.85;101448.44;5068655;27;45335;-67
2023/07/13 08:05:11;;;;;;;;;1.25;1.25;;;;;22.00;40.05;101440.41;5065896;27;45282;-68
2023/07/13 08:07:38;;;;;;;;;2.00;2.00;;;;;22.04;40.50;101441.13;5060942;28;45450;-68
2023/07/13 08:10:04;;;;;;;;;2.00;2.00;;;;;22.00;40.43;101437.75;5096480;27;48434;-69
2023/07/13 08:12:30;;;;;;;;;3.00;3.00;;;;;22.03;40.48;101445.59;5071449;27;45977;-68
2023/07/13 08:14:57;;;;;;;;;3.50;2.00;;;;;22.07;40.25;101446.31;5061217;28;45306;-68
2023/07/13 08:17:23;;;;;;;;;2.00;2.00;;;;;22.07;40.60;101439.16;5061205;28;45225;-67
2023/07/13 08:19:49;;;;;;;;;2.00;2.00;;;;;22.12;40.30;101448.75;5061028;28;45441;-68
2023/07/13 08:22:14;;;;;;;;;6.50;3.75;;;;;22.16;40.48;101436.94;5060788;28;45214;-68
2023/07/13 08:24:42;;;;;;;;;2.75;2.00;;;;;22.20;40.19;101436.72;5061092;28;45266;-67
2023/07/13 08:27:07;;;;;;;;;2.25;2.25;;;;;22.24;40.12;101446.31;5060857;28;45399;-67
2023/07/13 08:29:32;;;;;;;;;3.00;2.00;;;;;22.28;40.03;101447.00;5070801;28;46928;-67
2023/07/13 08:31:58;;;;;;;;;7.25;3.00;;;;;22.34;40.48;101446.69;5059478;28;45466;-67
2023/07/13 08:34:23;;;;;;;;;3.50;1.75;;;;;22.38;40.45;101452.78;5060840;28;45387;-67
2023/07/13 08:36:48;;;;;;;;;5.25;4.50;;;;;22.41;40.43;101447.25;5060753;28;45385;-68
2023/07/13 08:39:14;;;;;;;;;3.00;3.00;;;;;22.46;40.64;101447.03;5060686;28;45450;-67
2023/07/13 08:41:39;;;;;;;;;2.75;2.50;;;;;22.50;40.54;101451.25;5059461;28;45362;-67
2023/07/13 08:44:17;;;;;;;;;3.25;3.00;;;;;22.55;40.34;101451.88;5060821;28;45259;-68
2023/07/13 08:46:46;;;;;;;;;4.75;2.50;;;;;22.60;40.69;101448.97;5060754;28;45411;-67
2023/07/13 08:49:19;;;;;;;;;4.25;3.00;;;;;22.61;40.47;101445.34;5060485;28;46122;-67
2023/07/13 08:52:00;;;;;;;;;5.75;3.00;;;;;22.65;40.28;101450.44;5060636;28;45257;-67
2023/07/13 08:54:48;;;;;;;;;2.75;2.50;;;;;22.72;40.37;101462.53;5060452;28;45263;-67
2023/07/13 08:57:21;;;;;;;;;4.75;4.75;;;;;22.73;41.04;101458.94;5060462;28;45499;-67
2023/07/13 08:59:47;;;;;;;;;3.00;2.00;;;;;22.76;40.57;101459.72;5058876;28;47061;-66
2023/07/13 09:02:34;;;;;;;;;2.00;2.00;;;;;22.77;40.90;101456.94;5058989;28;45219;-66
2023/07/13 09:05:05;;;;;;;;;3.00;1.00;;;;;22.75;40.52;101461.50;5059125;28;45412;-67
2023/07/13 09:08:08;;;;;;;;;2.00;2.00;;;;;22.75;40.63;101461.50;5079167;28;45548;-66
2023/07/13 09:11:12;;;;;;;;;4.00;3.00;;;;;22.75;40.14;101455.31;5079234;28;46152;-66
2023/07/13 09:13:50;;;;;;;;;2.00;2.00;;;;;22.74;40.50;101454.41;5069625;28;45256;-66
2023/07/13 09:16:16;;;;;;;;;3.00;2.00;;;;;22.76;40.47;101455.22;5059245;28;45249;-66
2023/07/13 09:18:47;;;;;;;;;2.00;2.00;;;;;22.77;40.54;101458.78;5060160;28;45302;-66
2023/07/13 09:21:25;;;;;;;;;3.75;3.00;;;;;22.76;40.32;101443.66;5058586;28;47107;-67
2023/07/13 09:23:56;;;;;;;;;2.50;1.25;;;;;22.80;40.19;101447.88;5060390;28;45256;-66
2023/07/13 09:26:24;;;;;;;;;2.50;2.50;;;;;22.84;40.37;101458.34;5058676;28;45520;-66
2023/07/13 09:29:03;;;;;;;;;2.00;1.75;;;;;22.87;40.02;101455.50;5058933;28;45344;-66
2023/07/13 09:31:38;;;;;;;;;2.00;1.75;;;;;22.88;40.17;101457.22;5058479;28;48485;-66
2023/07/13 09:34:10;;;;;;;;;3.50;3.50;;;;;22.90;40.16;101459.81;5060012;28;45368;-66
2023/07/13 09:36:35;;;;;;;;;4.25;3.00;;;;;22.94;40.24;101455.16;5059863;28;45591;-66
2023/07/13 09:39:03;;;;;;;;;2.50;2.00;;;;;22.93;39.77;101448.94;5059851;28;49012;-66
2023/07/13 09:41:35;;;;;;;;;3.00;2.75;;;;;22.97;40.04;101444.28;5059650;28;45450;-66
2023/07/13 09:44:15;;;;;;;;;4.00;2.25;;;;;22.99;39.65;101445.03;5064518;28;45437;-66
2023/07/13 09:46:46;;;;;;;;;3.00;2.00;;;;;23.03;39.84;101446.59;5073873;28;45303;-65
2023/07/13 09:49:12;;;;;;;;;4.50;2.00;;;;;23.08;39.98;101446.34;5085622;28;45320;-66
2023/07/13 09:51:40;;;;;;;;;3.25;3.25;;;;;23.11;39.62;101444.38;5086682;28;46305;-65
2023/07/13 09:54:05;;;;;;;;;2.00;2.00;;;;;23.10;39.87;101445.31;5086730;28;45354;-66
2023/07/13 09:56:32;;;;;;;;;5.25;3.75;;;;;23.19;39.20;101442.16;5086596;28;48784;-65
2023/07/13 09:58:58;;;;;;;;;2.75;2.75;;;;;23.24;39.26;101441.03;5085447;28;45446;-66
2023/07/13 10:01:35;;;;;;;;;1.75;1.75;;;;;23.30;39.41;101448.72;5086564;28;46247;-68
2023/07/13 10:04:00;;;;;;;;;2.00;2.00;;;;;23.30;38.73;101460.31;5086504;28;45317;-66
2023/07/13 10:06:26;;;;;;;;;1.50;1.50;;;;;23.31;38.55;101459.34;5085491;28;45371;-66
2023/07/13 10:08:52;;;;;;;;;1.50;1.50;;;;;23.39;38.76;101450.88;5083923;28;45527;-66
2023/07/13 10:11:22;;;;;;;;;1.00;1.00;;;;;23.42;38.31;101455.19;5066302;28;45361;-66
2023/07/13 10:13:55;;;;;;;;;1.00;1.00;;;;;23.44;38.13;101464.03;5084078;28;45362;-66
2023/07/13 10:16:21;;;;;;;;;1.00;1.00;;;;;23.47;38.27;101461.16;5085853;28;45316;-66
2023/07/13 10:18:57;;;;;;;;;3.25;1.25;;;;;23.47;38.21;101458.47;5084683;28;45532;-67
2023/07/13 10:21:28;;;;;;;;;3.25;2.00;;;;;23.47;38.13;101470.09;5084615;28;48016;-66
2023/07/13 10:24:05;;;;;;;;;3.25;1.00;;;;;23.48;38.20;101465.56;5086513;28;45379;-67
2023/07/13 10:26:34;;;;;;;;;4.75;2.00;;;;;23.55;37.98;101475.00;5085060;28;45443;-67
2023/07/13 10:29:06;;;;;;;;;2.00;2.00;;;;;23.57;37.76;101475.78;5086481;28;45554;-68
2023/07/13 10:31:41;;;;;;;;;0.00;0.00;;;;;23.57;37.94;101475.78;5085021;28;47585;-67
2023/07/13 10:34:12;;;;;;;;;1.00;1.00;;;;;23.60;37.52;101467.56;5085297;28;45543;-68
2023/07/13 10:36:44;;;;;;;;;1.00;1.00;;;;;23.61;37.61;101469.28;5084853;27;45259;-68
2023/07/13 10:39:18;;;;;;;;;2.00;2.00;;;;;23.63;37.54;101472.72;5086238;28;45366;-68
2023/07/13 10:41:46;;;;;;;;;1.25;1.25;;;;;23.68;37.63;101476.03;5101902;27;48288;-67
2023/07/13 10:44:25;;;;;;;;;1.00;1.00;;;;;23.73;37.66;101475.75;5084726;28;45312;-68
2023/07/13 10:46:51;;;;;;;;;1.00;1.00;;;;;23.78;37.61;101475.50;5086298;28;45226;-68
2023/07/13 10:49:18;;;;;;;;;0.50;0.50;;;;;23.85;37.48;101485.75;5085826;28;45550;-68
2023/07/13 10:51:44;;;;;;;;;2.75;2.75;;;;;23.88;37.36;101482.03;5085858;28;46684;-68
2023/07/13 10:54:22;;;;;;;;;3.00;1.50;;;;;23.96;37.34;101490.53;5084539;28;45365;-67
2023/07/13 10:57:16;;;;;;;;;1.00;1.00;;;;;23.99;36.87;101482.31;5080972;28;45249;-68
2023/07/13 10:59:42;;;;;;;;;3.50;1.00;;;;;23.99;36.90;101481.44;5082808;28;45235;-68
2023/07/13 11:02:27;;;;;;;;;1.00;1.00;;;;;24.05;36.56;101485.56;5082643;28;46314;-68
2023/07/13 11:04:54;;;;;;;;;1.00;1.00;;;;;24.11;36.19;101495.94;5081163;28;45426;-67
2023/07/13 11:07:22;;;;;;;;;1.00;1.00;;;;;24.15;36.61;101494.81;5081138;28;45368;-68
2023/07/13 11:09:53;;;;;;;;;0.50;0.00;;;;;24.16;36.83;101491.16;5080744;28;45369;-67
2023/07/13 11:12:22;;;;;;;;;2.50;1.25;;;;;24.16;36.60;101491.16;5080396;27;47162;-68
2023/07/13 11:15:03;;;;;;;;;2.00;2.00;;;;;24.17;36.67;101495.59;5080611;28;45370;-68
2023/07/13 11:17:34;;;;;;;;;0.00;0.00;;;;;24.16;36.78;101496.53;5081077;28;45308;-68
2023/07/13 11:20:11;;;;;;;;;2.00;2.00;;;;;24.11;36.47;101485.22;5080920;28;45447;-68
2023/07/13 11:23:07;;;;;;;;;2.00;2.00;;;;;24.08;36.74;101483.56;5081872;28;45450;-69
2023/07/13 11:25:37;;;;;;;;;0.00;0.00;;;;;24.08;36.88;101488.94;5082314;28;45208;-68